• Join FlightAware (Why Join?)
  • Login
  • US Flag 
11:18PM EST


 

Airport Tracker/Info


-or-


 

Live Flight TrackerFlight Track Log ✈ AAR8736 ✈ 16-Oct-2013 ✈ RKJY / RSU - RKSS / GMP

Flight Track Log - Related Links

Times and Time Zones

All times are in EDT time to prevent confusion due to time zone crossing. See the AAR8736 flight status page for this flight to view local times or setup timezone preferences in your user account.

Time Position Orientation Groundspeed Altitude Reporting Facility
EDT Latitude Longitude Course Direction KTS MPH feet Rate Location/Type
04:25AM 36.7635 127.0379 346° North  Level Estimated
04:26AM 36.8436 127.0132 346° North  Level Estimated
04:27AM 36.9237 126.9885 346° North  Level Estimated
04:28AM 37.0037 126.9637 346° North  Level Estimated
04:29AM 37.0838 126.9389 346° North  Level Estimated
04:30AM 37.1639 126.9140 346° North  Level Estimated
04:31AM 37.2440 126.8890 346° North  Level Estimated
04:32AM 37.3240 126.8641 346° North  Level Estimated
04:33AM 37.4041 126.8390 346° North  Level Estimated
04:34AM 37.4841 126.8139 346° North  Level Estimated
04:35AM 37.5583 126.7906 346° North  Level Estimated
04:35AM 37.3450 127.0290 346° North 242 278 4,300  Level FlightAware
04:35AM 37.3680 127.0140 333° Northwest 228 262 4,000 -720 Descending FlightAware
04:35AM 37.3770 127.0070 328° Northwest 223 257 3,900 -360 Descending FlightAware
04:36AM 37.3990 126.9910 330° Northwest 206 237 3,800 -360 Descending FlightAware
04:36AM 37.4070 126.9830 322° Northwest 195 224 3,700 -720 Descending FlightAware
04:36AM 37.4160 126.9720 316° Northwest 192 221 3,500 -300 Descending FlightAware
04:37AM 37.4320 126.9510 314° West 190 219 3,500  Level FlightAware
04:39AM 37.5386 126.8157 315° West  Level Estimated
04:40AM 37.5583 126.7906 315° West  Level Estimated
04:41AM 37.5583 126.7906 288° West  Level Estimated
04:42AM 37.5583 126.7906 288° West  Level Estimated
04:43AM 37.5583 126.7906 288° West  Level Estimated
04:44AM 37.5583 126.7906 288° West  Level Estimated
04:45AM 37.5583 126.7906 288° West  Level Estimated
04:46AM 37.5583 126.7906 288° West  Level Estimated
04:47AM 37.5583 126.7906 288° West  Level Estimated
04:48AM 37.5583 126.7906 288° West  Level Estimated